Portada
METAR-TAF:

METAR-TAF

Aeropuertos :

Aeropuerto de Lugano

Lugano, Suiza

latitud: 46-00N, longitud: 008-58E, altitud: 273 m

Observación

El informe se hizo hace 27 minutos, a las 10:20 UTC
Viento 3 kt del sur
Temperatura 9°C
Humedad 34%
Presión 1025 hPa
Visibilidad 10 km o más
Nubes dispersas a una altura de 11000 ft

METAR: LSZA 201020Z 19003KT 9999 SCT110 09/M06 Q1025 NOSIG

Hora: 11:47 (10:47 UTC)

Pronóstico

El informe se hizo hace 2 horas y 22 minutos, a las 08:25 UTC
Pronóstico válido del 20 a las 09 UTC al 20 a las 18 UTC
Viento 3 kt con dirección variable
Visibilidad 10 km o más
Nubes dispersas a una altura de 10000 ft
Evolucionando progresivamente
del 20 a las 09 UTC al 20 a las 11 UTC
Visibilidad 10 km o más
sin nubes por debajo de 1500 m y sin presencia de cumulonimbus.

TAF: LSZA 200825Z 2009/2018 VRB03KT 9999 SCT100 BECMG 2009/2011 CAVOK

Observaciones y pronósticos meteorológicos de más de 4000 aeropuertos (mensajes METAR y TAF).

Los puntos amarillos y rojos representan las estaciones disponibles.

Ponga el ratón en el punto deseado para ver el nombre de la estación.

Haga clic para ver las observaciones y los pronósticos meteorológicos.

Para cambiar el mapa : haga clic en los botones verdes con una cruz de color negro para hacer un zoom, en el botón verde con un guión para alejar o en las flechas verdes para mapas adyacentes.


METAR-TAF: